sensor_id;sensor_type;location;lat;lon;timestamp;temperature;humidity
65369;HTU21D;51970;53.484;49.488;2023-08-20T00:01:09;19.22;61.01
65369;HTU21D;51970;53.484;49.488;2023-08-20T00:03:39;19.20;61.10
65369;HTU21D;51970;53.484;49.488;2023-08-20T00:06:06;19.20;61.36
65369;HTU21D;51970;53.484;49.488;2023-08-20T00:08:32;19.23;61.16
65369;HTU21D;51970;53.484;49.488;2023-08-20T00:10:58;19.29;60.97
65369;HTU21D;51970;53.484;49.488;2023-08-20T00:13:24;19.32;60.89
65369;HTU21D;51970;53.484;49.488;2023-08-20T00:15:50;19.33;60.86
65369;HTU21D;51970;53.484;49.488;2023-08-20T00:18:17;19.30;61.00
65369;HTU21D;51970;53.484;49.488;2023-08-20T00:20:43;19.18;61.25
65369;HTU21D;51970;53.484;49.488;2023-08-20T00:23:12;19.14;61.65
65369;HTU21D;51970;53.484;49.488;2023-08-20T00:25:38;19.11;61.64
65369;HTU21D;51970;53.484;49.488;2023-08-20T00:28:04;19.06;61.88
65369;HTU21D;51970;53.484;49.488;2023-08-20T00:30:30;19.00;62.02
65369;HTU21D;51970;53.484;49.488;2023-08-20T00:32:56;18.94;61.99
65369;HTU21D;51970;53.484;49.488;2023-08-20T00:35:23;18.85;62.44
65369;HTU21D;51970;53.484;49.488;2023-08-20T00:37:49;18.79;62.54
65369;HTU21D;51970;53.484;49.488;2023-08-20T00:40:16;18.77;62.71
65369;HTU21D;51970;53.484;49.488;2023-08-20T00:42:42;18.76;62.81
65369;HTU21D;51970;53.484;49.488;2023-08-20T00:45:08;18.73;62.96
65369;HTU21D;51970;53.484;49.488;2023-08-20T00:47:35;18.67;63.01
65369;HTU21D;51970;53.484;49.488;2023-08-20T00:50:02;18.62;63.20
65369;HTU21D;51970;53.484;49.488;2023-08-20T00:52:32;18.61;63.47
65369;HTU21D;51970;53.484;49.488;2023-08-20T00:54:59;18.61;63.41
65369;HTU21D;51970;53.484;49.488;2023-08-20T00:57:26;18.54;63.50
65369;HTU21D;51970;53.484;49.488;2023-08-20T00:59:54;18.46;63.73
65369;HTU21D;51970;53.484;49.488;2023-08-20T01:02:21;18.42;63.89
65369;HTU21D;51970;53.484;49.488;2023-08-20T01:04:48;18.41;63.80
65369;HTU21D;51970;53.484;49.488;2023-08-20T01:07:24;18.37;63.87
65369;HTU21D;51970;53.484;49.488;2023-08-20T01:10:19;18.35;63.92
65369;HTU21D;51970;53.484;49.488;2023-08-20T01:12:49;18.32;64.03
65369;HTU21D;51970;53.484;49.488;2023-08-20T01:15:15;18.29;64.01
65369;HTU21D;51970;53.484;49.488;2023-08-20T01:17:42;18.30;64.01
65369;HTU21D;51970;53.484;49.488;2023-08-20T01:20:10;18.33;63.81
65369;HTU21D;51970;53.484;49.488;2023-08-20T01:22:59;18.28;63.94
65369;HTU21D;51970;53.484;49.488;2023-08-20T01:28:31;18.28;63.94
65369;HTU21D;51970;53.484;49.488;2023-08-20T01:30:59;18.32;63.85
65369;HTU21D;51970;53.484;49.488;2023-08-20T01:33:25;18.32;63.84
65369;HTU21D;51970;53.484;49.488;2023-08-20T01:35:52;18.29;63.91
65369;HTU21D;51970;53.484;49.488;2023-08-20T01:38:19;18.26;63.97
65369;HTU21D;51970;53.484;49.488;2023-08-20T01:40:45;18.22;63.99
65369;HTU21D;51970;53.484;49.488;2023-08-20T01:43:11;18.17;64.22
65369;HTU21D;51970;53.484;49.488;2023-08-20T01:45:37;18.25;64.08
65369;HTU21D;51970;53.484;49.488;2023-08-20T01:48:03;18.29;63.58
65369;HTU21D;51970;53.484;49.488;2023-08-20T01:50:30;18.29;63.51
65369;HTU21D;51970;53.484;49.488;2023-08-20T01:52:56;18.28;63.53
65369;HTU21D;51970;53.484;49.488;2023-08-20T01:55:22;18.32;63.31
65369;HTU21D;51970;53.484;49.488;2023-08-20T01:57:48;18.32;63.19
65369;HTU21D;51970;53.484;49.488;2023-08-20T02:00:14;18.29;63.26
65369;HTU21D;51970;53.484;49.488;2023-08-20T02:02:40;18.32;63.03
65369;HTU21D;51970;53.484;49.488;2023-08-20T02:05:07;18.28;63.16
65369;HTU21D;51970;53.484;49.488;2023-08-20T02:07:33;18.30;63.10
65369;HTU21D;51970;53.484;49.488;2023-08-20T02:09:59;18.32;63.06
65369;HTU21D;51970;53.484;49.488;2023-08-20T02:12:26;18.49;62.56
65369;HTU21D;51970;53.484;49.488;2023-08-20T02:14:53;19.08;60.67
65369;HTU21D;51970;53.484;49.488;2023-08-20T02:17:19;19.65;58.64
65369;HTU21D;51970;53.484;49.488;2023-08-20T02:19:45;20.06;57.16
65369;HTU21D;51970;53.484;49.488;2023-08-20T02:22:11;20.44;56.10
65369;HTU21D;51970;53.484;49.488;2023-08-20T02:24:37;20.81;54.91
65369;HTU21D;51970;53.484;49.488;2023-08-20T02:27:04;21.06;54.39
65369;HTU21D;51970;53.484;49.488;2023-08-20T02:29:30;21.47;53.43
65369;HTU21D;51970;53.484;49.488;2023-08-20T02:31:56;22.05;51.49
65369;HTU21D;51970;53.484;49.488;2023-08-20T02:34:22;22.46;50.18
65369;HTU21D;51970;53.484;49.488;2023-08-20T02:36:48;22.77;49.37
65369;HTU21D;51970;53.484;49.488;2023-08-20T02:39:15;23.00;48.61
65369;HTU21D;51970;53.484;49.488;2023-08-20T02:41:43;22.83;49.31
65369;HTU21D;51970;53.484;49.488;2023-08-20T02:44:09;22.92;48.96
65369;HTU21D;51970;53.484;49.488;2023-08-20T02:46:35;22.51;50.04
65369;HTU21D;51970;53.484;49.488;2023-08-20T02:49:01;23.01;49.04
65369;HTU21D;51970;53.484;49.488;2023-08-20T02:51:27;23.37;47.47
65369;HTU21D;51970;53.484;49.488;2023-08-20T02:53:53;22.33;50.30
65369;HTU21D;51970;53.484;49.488;2023-08-20T02:56:19;22.53;49.76
65369;HTU21D;51970;53.484;49.488;2023-08-20T02:58:46;21.92;51.06
65369;HTU21D;51970;53.484;49.488;2023-08-20T03:01:22;20.43;55.24
65369;HTU21D;51970;53.484;49.488;2023-08-20T03:03:48;19.69;58.06
65369;HTU21D;51970;53.484;49.488;2023-08-20T03:06:14;19.35;59.51
65369;HTU21D;51970;53.484;49.488;2023-08-20T03:08:40;19.15;60.51
65369;HTU21D;51970;53.484;49.488;2023-08-20T03:11:07;18.97;60.99
65369;HTU21D;51970;53.484;49.488;2023-08-20T03:13:33;18.88;61.49
65369;HTU21D;51970;53.484;49.488;2023-08-20T03:15:59;18.86;61.60
65369;HTU21D;51970;53.484;49.488;2023-08-20T03:18:25;18.91;61.37
65369;HTU21D;51970;53.484;49.488;2023-08-20T03:20:51;19.11;60.56
65369;HTU21D;51970;53.484;49.488;2023-08-20T03:23:18;19.30;60.22
65369;HTU21D;51970;53.484;49.488;2023-08-20T03:25:44;19.52;59.47
65369;HTU21D;51970;53.484;49.488;2023-08-20T03:28:10;19.60;59.55
65369;HTU21D;51970;53.484;49.488;2023-08-20T03:30:36;19.84;58.71
65369;HTU21D;51970;53.484;49.488;2023-08-20T03:33:02;19.98;58.33
65369;HTU21D;51970;53.484;49.488;2023-08-20T03:35:29;20.02;58.05
65369;HTU21D;51970;53.484;49.488;2023-08-20T03:37:55;19.95;58.07
65369;HTU21D;51970;53.484;49.488;2023-08-20T03:40:21;19.83;58.66
65369;HTU21D;51970;53.484;49.488;2023-08-20T03:42:47;19.97;58.48
65369;HTU21D;51970;53.484;49.488;2023-08-20T03:45:13;20.22;57.90
65369;HTU21D;51970;53.484;49.488;2023-08-20T03:47:39;20.40;57.38
65369;HTU21D;51970;53.484;49.488;2023-08-20T03:50:06;20.31;57.40
65369;HTU21D;51970;53.484;49.488;2023-08-20T03:52:32;20.36;57.61
65369;HTU21D;51970;53.484;49.488;2023-08-20T03:54:58;20.43;57.22
65369;HTU21D;51970;53.484;49.488;2023-08-20T03:57:24;20.36;57.35
65369;HTU21D;51970;53.484;49.488;2023-08-20T03:59:50;20.57;56.89
65369;HTU21D;51970;53.484;49.488;2023-08-20T04:02:16;20.65;56.68
65369;HTU21D;51970;53.484;49.488;2023-08-20T04:04:42;20.80;56.35
65369;HTU21D;51970;53.484;49.488;2023-08-20T04:07:08;20.85;56.09
65369;HTU21D;51970;53.484;49.488;2023-08-20T04:09:34;20.92;56.26
65369;HTU21D;51970;53.484;49.488;2023-08-20T04:12:03;21.19;55.86
65369;HTU21D;51970;53.484;49.488;2023-08-20T04:14:29;21.13;55.33
65369;HTU21D;51970;53.484;49.488;2023-08-20T04:16:55;21.27;55.02
65369;HTU21D;51970;53.484;49.488;2023-08-20T04:19:21;21.39;54.95
65369;HTU21D;51970;53.484;49.488;2023-08-20T04:21:47;21.58;53.52
65369;HTU21D;51970;53.484;49.488;2023-08-20T04:24:14;21.65;53.35
65369;HTU21D;51970;53.484;49.488;2023-08-20T04:26:40;21.95;52.68
65369;HTU21D;51970;53.484;49.488;2023-08-20T04:29:06;22.08;52.60
65369;HTU21D;51970;53.484;49.488;2023-08-20T04:31:32;22.25;52.07
65369;HTU21D;51970;53.484;49.488;2023-08-20T04:33:58;22.23;52.11
65369;HTU21D;51970;53.484;49.488;2023-08-20T04:36:24;22.29;51.96
65369;HTU21D;51970;53.484;49.488;2023-08-20T04:38:50;22.24;52.31
65369;HTU21D;51970;53.484;49.488;2023-08-20T04:41:16;22.31;52.07
65369;HTU21D;51970;53.484;49.488;2023-08-20T04:43:42;22.38;51.72
65369;HTU21D;51970;53.484;49.488;2023-08-20T04:46:08;22.57;51.22
65369;HTU21D;51970;53.484;49.488;2023-08-20T04:48:34;22.67;51.00
65369;HTU21D;51970;53.484;49.488;2023-08-20T04:51:00;22.65;50.98
65369;HTU21D;51970;53.484;49.488;2023-08-20T04:53:26;22.70;50.82
65369;HTU21D;51970;53.484;49.488;2023-08-20T04:55:52;22.86;50.42
65369;HTU21D;51970;53.484;49.488;2023-08-20T04:58:19;22.92;50.28
65369;HTU21D;51970;53.484;49.488;2023-08-20T05:00:45;22.87;50.00
65369;HTU21D;51970;53.484;49.488;2023-08-20T05:03:11;22.90;49.69
65369;HTU21D;51970;53.484;49.488;2023-08-20T05:05:37;23.14;48.84
65369;HTU21D;51970;53.484;49.488;2023-08-20T05:08:03;23.25;48.60
65369;HTU21D;51970;53.484;49.488;2023-08-20T05:10:29;23.42;48.52
65369;HTU21D;51970;53.484;49.488;2023-08-20T05:12:55;23.39;47.76
65369;HTU21D;51970;53.484;49.488;2023-08-20T05:15:22;23.43;47.98
65369;HTU21D;51970;53.484;49.488;2023-08-20T05:17:48;23.47;47.44
65369;HTU21D;51970;53.484;49.488;2023-08-20T05:20:14;23.40;47.09
65369;HTU21D;51970;53.484;49.488;2023-08-20T05:22:41;23.45;47.41
65369;HTU21D;51970;53.484;49.488;2023-08-20T05:25:07;23.44;47.10
65369;HTU21D;51970;53.484;49.488;2023-08-20T05:27:33;23.55;46.31
65369;HTU21D;51970;53.484;49.488;2023-08-20T05:29:59;23.57;46.05
65369;HTU21D;51970;53.484;49.488;2023-08-20T05:32:25;23.43;45.92
65369;HTU21D;51970;53.484;49.488;2023-08-20T05:34:51;23.45;45.81
65369;HTU21D;51970;53.484;49.488;2023-08-20T05:37:17;23.54;45.41
65369;HTU21D;51970;53.484;49.488;2023-08-20T05:39:44;23.55;44.29
65369;HTU21D;51970;53.484;49.488;2023-08-20T05:42:10;23.57;45.25
65369;HTU21D;51970;53.484;49.488;2023-08-20T05:44:36;23.71;45.36
65369;HTU21D;51970;53.484;49.488;2023-08-20T05:47:02;23.87;44.79
65369;HTU21D;51970;53.484;49.488;2023-08-20T05:49:28;23.99;44.08
65369;HTU21D;51970;53.484;49.488;2023-08-20T05:51:55;23.89;44.96
65369;HTU21D;51970;53.484;49.488;2023-08-20T05:54:21;23.98;45.12
65369;HTU21D;51970;53.484;49.488;2023-08-20T05:56:47;23.94;45.01
65369;HTU21D;51970;53.484;49.488;2023-08-20T05:59:13;23.88;45.41
65369;HTU21D;51970;53.484;49.488;2023-08-20T06:01:39;23.90;45.32
65369;HTU21D;51970;53.484;49.488;2023-08-20T06:04:05;23.98;45.52
65369;HTU21D;51970;53.484;49.488;2023-08-20T06:06:31;24.13;44.71
65369;HTU21D;51970;53.484;49.488;2023-08-20T06:08:57;24.26;44.14
65369;HTU21D;51970;53.484;49.488;2023-08-20T06:11:23;24.47;42.68
65369;HTU21D;51970;53.484;49.488;2023-08-20T06:13:49;24.42;42.54
65369;HTU21D;51970;53.484;49.488;2023-08-20T06:16:15;24.48;42.19
65369;HTU21D;51970;53.484;49.488;2023-08-20T06:18:41;24.61;41.67
65369;HTU21D;51970;53.484;49.488;2023-08-20T06:21:07;24.60;41.65
65369;HTU21D;51970;53.484;49.488;2023-08-20T06:23:34;24.59;41.34
65369;HTU21D;51970;53.484;49.488;2023-08-20T06:26:00;24.62;41.23
65369;HTU21D;51970;53.484;49.488;2023-08-20T06:28:26;24.68;41.02
65369;HTU21D;51970;53.484;49.488;2023-08-20T06:30:52;24.74;40.95
65369;HTU21D;51970;53.484;49.488;2023-08-20T06:33:18;24.76;40.23
65369;HTU21D;51970;53.484;49.488;2023-08-20T06:35:44;24.53;40.62
65369;HTU21D;51970;53.484;49.488;2023-08-20T06:38:10;24.62;41.06
65369;HTU21D;51970;53.484;49.488;2023-08-20T06:40:36;24.73;40.23
65369;HTU21D;51970;53.484;49.488;2023-08-20T06:43:02;24.91;40.20
65369;HTU21D;51970;53.484;49.488;2023-08-20T06:45:29;25.00;40.28
65369;HTU21D;51970;53.484;49.488;2023-08-20T06:47:55;24.86;40.42
65369;HTU21D;51970;53.484;49.488;2023-08-20T06:50:23;24.86;40.52
65369;HTU21D;51970;53.484;49.488;2023-08-20T06:52:49;24.91;39.93
65369;HTU21D;51970;53.484;49.488;2023-08-20T06:55:15;24.89;39.90
65369;HTU21D;51970;53.484;49.488;2023-08-20T06:57:41;24.97;40.32
65369;HTU21D;51970;53.484;49.488;2023-08-20T07:00:07;25.21;39.74
65369;HTU21D;51970;53.484;49.488;2023-08-20T07:02:33;25.31;39.22
65369;HTU21D;51970;53.484;49.488;2023-08-20T07:04:59;25.16;40.40
65369;HTU21D;51970;53.484;49.488;2023-08-20T07:07:25;25.29;39.88
65369;HTU21D;51970;53.484;49.488;2023-08-20T07:09:51;25.42;39.75
65369;HTU21D;51970;53.484;49.488;2023-08-20T07:12:17;25.54;39.91
65369;HTU21D;51970;53.484;49.488;2023-08-20T07:14:43;25.66;39.17
65369;HTU21D;51970;53.484;49.488;2023-08-20T07:17:09;25.51;39.42
65369;HTU21D;51970;53.484;49.488;2023-08-20T07:19:36;25.30;39.63
65369;HTU21D;51970;53.484;49.488;2023-08-20T07:22:03;25.33;39.89
65369;HTU21D;51970;53.484;49.488;2023-08-20T07:24:30;25.44;39.14
65369;HTU21D;51970;53.484;49.488;2023-08-20T07:27:01;25.63;39.13
65369;HTU21D;51970;53.484;49.488;2023-08-20T07:29:29;25.61;38.74
65369;HTU21D;51970;53.484;49.488;2023-08-20T07:31:59;25.63;38.46
65369;HTU21D;51970;53.484;49.488;2023-08-20T07:34:29;25.80;38.53
65369;HTU21D;51970;53.484;49.488;2023-08-20T07:37:00;25.87;38.49
65369;HTU21D;51970;53.484;49.488;2023-08-20T07:39:27;25.79;38.85
65369;HTU21D;51970;53.484;49.488;2023-08-20T07:41:53;25.81;38.52
65369;HTU21D;51970;53.484;49.488;2023-08-20T07:44:19;25.83;38.53
65369;HTU21D;51970;53.484;49.488;2023-08-20T07:46:45;25.88;38.33
65369;HTU21D;51970;53.484;49.488;2023-08-20T07:49:11;25.95;38.67
65369;HTU21D;51970;53.484;49.488;2023-08-20T07:51:37;26.16;38.35
65369;HTU21D;51970;53.484;49.488;2023-08-20T07:54:04;25.97;38.84
65369;HTU21D;51970;53.484;49.488;2023-08-20T07:56:30;25.98;38.69
65369;HTU21D;51970;53.484;49.488;2023-08-20T07:58:56;26.03;38.43
65369;HTU21D;51970;53.484;49.488;2023-08-20T08:01:22;25.91;38.85
65369;HTU21D;51970;53.484;49.488;2023-08-20T08:03:48;26.02;37.95
65369;HTU21D;51970;53.484;49.488;2023-08-20T08:06:16;26.19;38.39
65369;HTU21D;51970;53.484;49.488;2023-08-20T08:08:42;26.35;38.10
65369;HTU21D;51970;53.484;49.488;2023-08-20T08:11:10;26.21;38.82
65369;HTU21D;51970;53.484;49.488;2023-08-20T08:13:36;26.20;39.12
65369;HTU21D;51970;53.484;49.488;2023-08-20T08:16:02;26.34;38.30
65369;HTU21D;51970;53.484;49.488;2023-08-20T08:18:28;26.26;38.48
65369;HTU21D;51970;53.484;49.488;2023-08-20T08:20:54;26.13;38.63
65369;HTU21D;51970;53.484;49.488;2023-08-20T08:23:23;26.12;39.10
65369;HTU21D;51970;53.484;49.488;2023-08-20T08:25:49;26.24;38.36
65369;HTU21D;51970;53.484;49.488;2023-08-20T08:28:15;26.43;37.78
65369;HTU21D;51970;53.484;49.488;2023-08-20T08:30:41;26.32;37.88
65369;HTU21D;51970;53.484;49.488;2023-08-20T08:33:07;26.33;37.97
65369;HTU21D;51970;53.484;49.488;2023-08-20T08:35:33;26.53;37.77
65369;HTU21D;51970;53.484;49.488;2023-08-20T08:37:59;26.55;37.64
65369;HTU21D;51970;53.484;49.488;2023-08-20T08:40:29;26.19;38.91
65369;HTU21D;51970;53.484;49.488;2023-08-20T08:42:56;26.37;38.18
65369;HTU21D;51970;53.484;49.488;2023-08-20T08:45:22;26.60;38.33
65369;HTU21D;51970;53.484;49.488;2023-08-20T08:47:49;26.71;37.46
65369;HTU21D;51970;53.484;49.488;2023-08-20T08:50:15;26.71;37.14
65369;HTU21D;51970;53.484;49.488;2023-08-20T08:52:41;26.86;37.21
65369;HTU21D;51970;53.484;49.488;2023-08-20T08:55:08;26.98;36.72
65369;HTU21D;51970;53.484;49.488;2023-08-20T08:57:37;26.69;37.56
65369;HTU21D;51970;53.484;49.488;2023-08-20T09:00:05;26.55;38.13
65369;HTU21D;51970;53.484;49.488;2023-08-20T09:02:31;26.52;38.48
65369;HTU21D;51970;53.484;49.488;2023-08-20T09:04:58;26.71;38.16
65369;HTU21D;51970;53.484;49.488;2023-08-20T09:07:24;26.93;37.80
65369;HTU21D;51970;53.484;49.488;2023-08-20T09:09:50;26.95;38.01
65369;HTU21D;51970;53.484;49.488;2023-08-20T09:12:18;27.20;37.09
65369;HTU21D;51970;53.484;49.488;2023-08-20T09:14:49;27.37;36.67
65369;HTU21D;51970;53.484;49.488;2023-08-20T09:17:16;27.26;37.11
65369;HTU21D;51970;53.484;49.488;2023-08-20T09:19:43;27.23;37.20
65369;HTU21D;51970;53.484;49.488;2023-08-20T09:22:14;27.40;36.43
65369;HTU21D;51970;53.484;49.488;2023-08-20T09:24:46;27.38;36.78
65369;HTU21D;51970;53.484;49.488;2023-08-20T09:27:13;27.43;37.00
65369;HTU21D;51970;53.484;49.488;2023-08-20T09:29:47;27.51;36.91
65369;HTU21D;51970;53.484;49.488;2023-08-20T09:32:15;27.46;37.26
65369;HTU21D;51970;53.484;49.488;2023-08-20T09:34:41;27.49;36.53
65369;HTU21D;51970;53.484;49.488;2023-08-20T09:37:13;27.32;36.94
65369;HTU21D;51970;53.484;49.488;2023-08-20T09:39:40;27.36;36.75
65369;HTU21D;51970;53.484;49.488;2023-08-20T09:42:07;27.44;36.88
65369;HTU21D;51970;53.484;49.488;2023-08-20T09:44:35;27.75;36.13
65369;HTU21D;51970;53.484;49.488;2023-08-20T09:47:05;27.80;35.56
65369;HTU21D;51970;53.484;49.488;2023-08-20T09:49:36;27.75;36.14
65369;HTU21D;51970;53.484;49.488;2023-08-20T09:52:05;27.51;36.70
65369;HTU21D;51970;53.484;49.488;2023-08-20T09:54:36;27.14;37.35
65369;HTU21D;51970;53.484;49.488;2023-08-20T09:57:07;26.93;37.88
65369;HTU21D;51970;53.484;49.488;2023-08-20T09:59:38;27.16;37.56
65369;HTU21D;51970;53.484;49.488;2023-08-20T10:02:10;27.39;36.92
65369;HTU21D;51970;53.484;49.488;2023-08-20T10:04:38;27.30;37.01
65369;HTU21D;51970;53.484;49.488;2023-08-20T10:07:04;27.60;36.67
65369;HTU21D;51970;53.484;49.488;2023-08-20T10:09:31;27.94;36.02
65369;HTU21D;51970;53.484;49.488;2023-08-20T10:11:57;27.76;36.30
65369;HTU21D;51970;53.484;49.488;2023-08-20T10:14:24;27.57;36.87
65369;HTU21D;51970;53.484;49.488;2023-08-20T10:16:51;27.53;37.56
65369;HTU21D;51970;53.484;49.488;2023-08-20T10:19:19;27.47;37.09
65369;HTU21D;51970;53.484;49.488;2023-08-20T10:21:46;27.37;37.62
65369;HTU21D;51970;53.484;49.488;2023-08-20T10:24:23;27.26;37.81
65369;HTU21D;51970;53.484;49.488;2023-08-20T10:27:07;27.38;37.91
65369;HTU21D;51970;53.484;49.488;2023-08-20T10:29:35;27.26;37.96
65369;HTU21D;51970;53.484;49.488;2023-08-20T10:32:08;27.25;37.88
65369;HTU21D;51970;53.484;49.488;2023-08-20T10:34:39;27.44;37.75
65369;HTU21D;51970;53.484;49.488;2023-08-20T10:37:09;27.34;37.92
65369;HTU21D;51970;53.484;49.488;2023-08-20T10:39:36;27.41;38.21
65369;HTU21D;51970;53.484;49.488;2023-08-20T10:47:42;26.99;38.62
65369;HTU21D;51970;53.484;49.488;2023-08-20T10:50:10;27.21;38.02
65369;HTU21D;51970;53.484;49.488;2023-08-20T10:52:40;27.26;37.67
65369;HTU21D;51970;53.484;49.488;2023-08-20T10:55:08;27.50;37.63
65369;HTU21D;51970;53.484;49.488;2023-08-20T10:57:37;27.59;37.35
65369;HTU21D;51970;53.484;49.488;2023-08-20T11:00:04;27.75;37.04
65369;HTU21D;51970;53.484;49.488;2023-08-20T11:02:46;27.96;36.69
65369;HTU21D;51970;53.484;49.488;2023-08-20T11:05:17;27.94;36.83
65369;HTU21D;51970;53.484;49.488;2023-08-20T11:07:48;27.87;36.85
65369;HTU21D;51970;53.484;49.488;2023-08-20T11:10:15;27.87;36.89
65369;HTU21D;51970;53.484;49.488;2023-08-20T11:12:48;27.88;36.96
65369;HTU21D;51970;53.484;49.488;2023-08-20T11:15:14;27.86;37.06
65369;HTU21D;51970;53.484;49.488;2023-08-20T11:17:49;28.00;36.74
65369;HTU21D;51970;53.484;49.488;2023-08-20T11:20:15;27.58;37.60
65369;HTU21D;51970;53.484;49.488;2023-08-20T11:22:41;27.45;37.82
65369;HTU21D;51970;53.484;49.488;2023-08-20T11:25:11;27.49;37.53
65369;HTU21D;51970;53.484;49.488;2023-08-20T11:27:42;27.59;37.56
65369;HTU21D;51970;53.484;49.488;2023-08-20T11:30:09;27.68;37.33
65369;HTU21D;51970;53.484;49.488;2023-08-20T11:32:38;27.78;37.21
65369;HTU21D;51970;53.484;49.488;2023-08-20T11:35:05;28.11;36.05
65369;HTU21D;51970;53.484;49.488;2023-08-20T11:37:33;27.88;36.65
65369;HTU21D;51970;53.484;49.488;2023-08-20T11:39:59;28.01;36.64
65369;HTU21D;51970;53.484;49.488;2023-08-20T11:42:25;27.88;36.63
65369;HTU21D;51970;53.484;49.488;2023-08-20T11:44:55;27.87;36.84
65369;HTU21D;51970;53.484;49.488;2023-08-20T11:47:22;27.75;37.08
65369;HTU21D;51970;53.484;49.488;2023-08-20T11:49:48;27.81;37.04
65369;HTU21D;51970;53.484;49.488;2023-08-20T11:52:27;27.75;37.43
65369;HTU21D;51970;53.484;49.488;2023-08-20T11:54:53;27.64;37.26
65369;HTU21D;51970;53.484;49.488;2023-08-20T11:57:19;27.56;37.56
65369;HTU21D;51970;53.484;49.488;2023-08-20T11:59:45;27.59;37.59
65369;HTU21D;51970;53.484;49.488;2023-08-20T12:02:11;27.11;38.16
65369;HTU21D;51970;53.484;49.488;2023-08-20T12:04:38;26.87;38.97
65369;HTU21D;51970;53.484;49.488;2023-08-20T12:07:12;26.86;39.13
65369;HTU21D;51970;53.484;49.488;2023-08-20T12:09:39;27.07;38.65
65369;HTU21D;51970;53.484;49.488;2023-08-20T12:12:06;27.10;38.40
65369;HTU21D;51970;53.484;49.488;2023-08-20T12:14:33;27.21;38.32
65369;HTU21D;51970;53.484;49.488;2023-08-20T12:16:59;27.23;38.17
65369;HTU21D;51970;53.484;49.488;2023-08-20T12:19:25;26.95;38.71
65369;HTU21D;51970;53.484;49.488;2023-08-20T12:21:51;26.93;38.79
65369;HTU21D;51970;53.484;49.488;2023-08-20T12:24:18;27.00;38.50
65369;HTU21D;51970;53.484;49.488;2023-08-20T12:26:47;27.04;38.66
65369;HTU21D;51970;53.484;49.488;2023-08-20T12:29:13;27.22;38.53
65369;HTU21D;51970;53.484;49.488;2023-08-20T12:31:40;27.24;38.06
65369;HTU21D;51970;53.484;49.488;2023-08-20T12:34:07;27.21;38.50
65369;HTU21D;51970;53.484;49.488;2023-08-20T12:36:34;27.39;38.20
65369;HTU21D;51970;53.484;49.488;2023-08-20T12:39:00;27.34;37.92
65369;HTU21D;51970;53.484;49.488;2023-08-20T12:41:26;27.17;38.18
65369;HTU21D;51970;53.484;49.488;2023-08-20T12:43:52;27.08;38.47
65369;HTU21D;51970;53.484;49.488;2023-08-20T12:46:18;27.09;38.56
65369;HTU21D;51970;53.484;49.488;2023-08-20T12:48:46;27.21;38.44
65369;HTU21D;51970;53.484;49.488;2023-08-20T12:51:12;27.25;38.16
65369;HTU21D;51970;53.484;49.488;2023-08-20T12:53:40;27.17;38.46
65369;HTU21D;51970;53.484;49.488;2023-08-20T12:56:06;27.31;38.27
65369;HTU21D;51970;53.484;49.488;2023-08-20T12:58:32;27.22;38.17
65369;HTU21D;51970;53.484;49.488;2023-08-20T13:00:58;27.19;38.17
65369;HTU21D;51970;53.484;49.488;2023-08-20T13:03:24;27.16;38.20
65369;HTU21D;51970;53.484;49.488;2023-08-20T13:05:51;27.23;38.34
65369;HTU21D;51970;53.484;49.488;2023-08-20T13:08:17;27.37;37.98
65369;HTU21D;51970;53.484;49.488;2023-08-20T13:10:49;27.45;37.59
65369;HTU21D;51970;53.484;49.488;2023-08-20T13:13:19;27.27;37.80
65369;HTU21D;51970;53.484;49.488;2023-08-20T13:15:47;27.13;38.04
65369;HTU21D;51970;53.484;49.488;2023-08-20T13:18:13;27.17;38.14
65369;HTU21D;51970;53.484;49.488;2023-08-20T13:20:40;27.25;38.30
65369;HTU21D;51970;53.484;49.488;2023-08-20T13:23:06;27.25;37.97
65369;HTU21D;51970;53.484;49.488;2023-08-20T13:25:32;27.11;38.19
65369;HTU21D;51970;53.484;49.488;2023-08-20T13:27:58;27.10;38.25
65369;HTU21D;51970;53.484;49.488;2023-08-20T13:30:24;26.96;38.73
65369;HTU21D;51970;53.484;49.488;2023-08-20T13:32:51;26.90;38.56
65369;HTU21D;51970;53.484;49.488;2023-08-20T13:35:17;26.90;38.57
65369;HTU21D;51970;53.484;49.488;2023-08-20T13:37:44;26.93;38.43
65369;HTU21D;51970;53.484;49.488;2023-08-20T13:40:11;26.91;38.45
65369;HTU21D;51970;53.484;49.488;2023-08-20T13:42:37;26.89;38.63
65369;HTU21D;51970;53.484;49.488;2023-08-20T13:45:03;26.83;38.66
65369;HTU21D;51970;53.484;49.488;2023-08-20T13:47:30;26.85;39.01
65369;HTU21D;51970;53.484;49.488;2023-08-20T13:49:56;26.90;38.74
65369;HTU21D;51970;53.484;49.488;2023-08-20T13:52:22;26.68;38.80
65369;HTU21D;51970;53.484;49.488;2023-08-20T13:54:48;26.57;39.03
65369;HTU21D;51970;53.484;49.488;2023-08-20T13:57:15;26.51;39.35
65369;HTU21D;51970;53.484;49.488;2023-08-20T13:59:41;26.52;39.54
65369;HTU21D;51970;53.484;49.488;2023-08-20T14:02:07;26.53;39.50
65369;HTU21D;51970;53.484;49.488;2023-08-20T14:04:33;26.53;39.31
65369;HTU21D;51970;53.484;49.488;2023-08-20T14:06:59;26.54;39.30
65369;HTU21D;51970;53.484;49.488;2023-08-20T14:09:25;26.53;39.41
65369;HTU21D;51970;53.484;49.488;2023-08-20T14:11:51;26.58;39.36
65369;HTU21D;51970;53.484;49.488;2023-08-20T14:14:17;26.47;39.80
65369;HTU21D;51970;53.484;49.488;2023-08-20T14:16:43;26.41;39.88
65369;HTU21D;51970;53.484;49.488;2023-08-20T14:19:09;26.37;39.78
65369;HTU21D;51970;53.484;49.488;2023-08-20T14:21:36;26.40;39.72
65369;HTU21D;51970;53.484;49.488;2023-08-20T14:24:02;26.42;39.88
65369;HTU21D;51970;53.484;49.488;2023-08-20T14:26:29;26.54;39.72
65369;HTU21D;51970;53.484;49.488;2023-08-20T14:28:55;26.86;38.83
65369;HTU21D;51970;53.484;49.488;2023-08-20T14:31:21;26.90;38.83
65369;HTU21D;51970;53.484;49.488;2023-08-20T14:33:47;26.92;39.10
65369;HTU21D;51970;53.484;49.488;2023-08-20T14:36:13;27.06;38.59
65369;HTU21D;51970;53.484;49.488;2023-08-20T14:38:39;27.27;38.31
65369;HTU21D;51970;53.484;49.488;2023-08-20T14:41:05;27.37;37.79
65369;HTU21D;51970;53.484;49.488;2023-08-20T14:43:32;27.26;37.91
65369;HTU21D;51970;53.484;49.488;2023-08-20T14:45:58;26.77;38.95
65369;HTU21D;51970;53.484;49.488;2023-08-20T14:48:24;26.48;39.68
65369;HTU21D;51970;53.484;49.488;2023-08-20T14:50:51;26.24;40.06
65369;HTU21D;51970;53.484;49.488;2023-08-20T14:53:17;26.09;40.52
65369;HTU21D;51970;53.484;49.488;2023-08-20T14:55:44;25.99;40.94
65369;HTU21D;51970;53.484;49.488;2023-08-20T14:58:10;25.91;40.92
65369;HTU21D;51970;53.484;49.488;2023-08-20T15:00:36;25.83;41.09
65369;HTU21D;51970;53.484;49.488;2023-08-20T15:03:03;25.82;41.35
65369;HTU21D;51970;53.484;49.488;2023-08-20T15:05:30;25.81;41.28
65369;HTU21D;51970;53.484;49.488;2023-08-20T15:07:56;25.78;41.40
65369;HTU21D;51970;53.484;49.488;2023-08-20T15:10:22;25.74;41.46